createdAt,value
2022-08-19T00:01:29.208Z,20.23
2022-08-19T00:03:59.744Z,16.83
2022-08-19T00:06:28.045Z,25.92
2022-08-19T00:08:55.176Z,20.50
2022-08-19T00:11:25.596Z,18.77
2022-08-19T00:13:54.067Z,16.85
2022-08-19T00:16:25.766Z,18.80
2022-08-19T00:18:54.580Z,17.27
2022-08-19T00:21:21.409Z,17.80
2022-08-19T00:23:48.651Z,19.38
2022-08-19T00:26:15.766Z,18.50
2022-08-19T00:28:45.192Z,14.25
2022-08-19T00:31:12.197Z,14.68
2022-08-19T00:33:39.178Z,17.33
2022-08-19T00:36:08.579Z,14.23
2022-08-19T00:38:38.168Z,17.05
2022-08-19T00:41:06.798Z,19.70
2022-08-19T00:43:34.160Z,18.83
2022-08-19T00:46:03.904Z,16.63
2022-08-19T00:48:30.680Z,15.02
2022-08-19T00:50:57.754Z,14.73
2022-08-19T00:53:28.443Z,14.75
2022-08-19T00:55:58.884Z,18.27
2022-08-19T00:58:30.023Z,14.07
2022-08-19T01:00:56.831Z,18.83
2022-08-19T01:03:24.058Z,19.45
2022-08-19T01:05:52.792Z,20.45
2022-08-19T01:08:20.992Z,16.95
2022-08-19T01:10:57.091Z,21.65
2022-08-19T01:13:27.669Z,23.25
2022-08-19T01:16:10.360Z,19.97
2022-08-19T01:18:41.915Z,22.60
2022-08-19T01:23:48.810Z,18.73
2022-08-19T01:26:22.480Z,21.63
2022-08-19T01:28:54.807Z,24.10
2022-08-19T01:31:32.841Z,21.42
2022-08-19T01:34:01.109Z,19.38
2022-08-19T01:36:36.582Z,25.83
2022-08-19T01:39:07.245Z,24.80
2022-08-19T01:41:34.957Z,26.40
2022-08-19T01:44:17.193Z,24.58
2022-08-19T01:46:48.805Z,31.85
2022-08-19T01:49:17.416Z,29.80
2022-08-19T01:51:44.228Z,32.30
2022-08-19T01:54:23.316Z,36.72
2022-08-19T01:57:00.411Z,39.08
2022-08-19T01:59:27.643Z,23.33
2022-08-19T02:01:54.408Z,25.52
2022-08-19T02:04:21.836Z,25.23
2022-08-19T02:06:49.699Z,23.27
2022-08-19T02:09:17.343Z,27.00
2022-08-19T02:11:44.117Z,29.17
2022-08-19T02:14:12.073Z,30.70
2022-08-19T02:16:39.311Z,35.75
2022-08-19T02:19:06.193Z,28.77
2022-08-19T02:21:33.301Z,38.17
2022-08-19T02:24:00.455Z,45.50
2022-08-19T02:26:30.116Z,53.28
2022-08-19T02:28:57.248Z,53.92
2022-08-19T02:31:26.211Z,55.08
2022-08-19T02:33:56.692Z,58.92
2022-08-19T02:36:25.206Z,57.08
2022-08-19T02:38:54.864Z,61.60
2022-08-19T02:41:28.898Z,58.83
2022-08-19T02:44:28.661Z,65.38
2022-08-19T02:46:52.443Z,60.58
2022-08-19T02:49:19.652Z,60.50
2022-08-19T02:51:47.865Z,64.38
2022-08-19T02:54:15.841Z,70.72
2022-08-19T02:56:44.420Z,62.58
2022-08-19T02:59:12.891Z,67.35
2022-08-19T03:01:42.126Z,68.65
2022-08-19T03:04:12.257Z,65.30
2022-08-19T03:06:44.362Z,65.88
2022-08-19T03:09:12.454Z,65.60
2022-08-19T03:11:39.887Z,68.60
2022-08-19T03:14:09.277Z,67.43
2022-08-19T03:16:43.299Z,69.88
2022-08-19T03:19:10.094Z,64.97
2022-08-19T03:21:36.872Z,68.30
2022-08-19T03:24:07.287Z,72.45
2022-08-19T03:26:35.088Z,67.03
2022-08-19T03:29:05.944Z,61.50
2022-08-19T03:31:43.388Z,72.05
2022-08-19T03:34:14.907Z,75.93
2022-08-19T03:36:42.021Z,77.45
2022-08-19T03:39:09.474Z,78.82
2022-08-19T03:41:45.449Z,76.68
2022-08-19T03:44:17.807Z,83.80
2022-08-19T03:46:46.476Z,89.63
2022-08-19T03:49:14.190Z,93.03
2022-08-19T03:51:43.203Z,91.20
2022-08-19T03:54:13.781Z,93.10
2022-08-19T03:56:42.703Z,103.27
2022-08-19T03:59:15.092Z,103.03
2022-08-19T04:01:44.348Z,104.55
2022-08-19T04:04:11.359Z,107.32
2022-08-19T04:06:40.049Z,111.82
2022-08-19T04:09:10.439Z,117.38
2022-08-19T04:11:44.832Z,119.93
2022-08-19T04:14:15.544Z,107.93
2022-08-19T04:16:44.803Z,112.63
2022-08-19T04:19:12.366Z,109.85
2022-08-19T04:21:39.169Z,110.47
2022-08-19T04:24:06.212Z,108.28
2022-08-19T04:26:35.445Z,109.97
2022-08-19T04:29:09.182Z,105.82
2022-08-19T04:31:38.723Z,101.07
2022-08-19T04:34:11.757Z,102.80
2022-08-19T04:36:40.813Z,105.70
2022-08-19T04:39:11.819Z,100.55
2022-08-19T04:41:57.404Z,104.53
2022-08-19T04:44:24.272Z,108.57
2022-08-19T04:46:52.306Z,105.75
2022-08-19T04:49:21.111Z,104.03
2022-08-19T04:51:48.698Z,103.50
2022-08-19T04:54:33.760Z,106.82
2022-08-19T04:57:07.131Z,105.35
2022-08-19T04:59:34.594Z,99.97
2022-08-19T05:02:01.503Z,97.78
2022-08-19T05:04:33.048Z,98.75
2022-08-19T05:07:02.063Z,95.90
2022-08-19T05:09:52.499Z,90.97
2022-08-19T05:12:18.320Z,95.25
2022-08-19T05:14:47.032Z,91.90
2022-08-19T05:17:34.612Z,96.38
2022-08-19T05:20:20.130Z,99.35
2022-08-19T05:22:48.396Z,87.15
2022-08-19T05:25:20.173Z,91.72
2022-08-19T05:27:47.498Z,90.38
2022-08-19T05:30:17.456Z,95.97
2022-08-19T05:32:44.292Z,90.93
2022-08-19T05:35:12.275Z,97.32
2022-08-19T05:37:41.420Z,86.68
2022-08-19T05:40:10.226Z,86.53
2022-08-19T05:42:37.246Z,78.72
2022-08-19T05:45:05.444Z,82.18
2022-08-19T05:47:33.008Z,78.43
2022-08-19T05:49:59.861Z,88.93
2022-08-19T05:52:28.123Z,86.07
2022-08-19T05:54:56.910Z,87.03
2022-08-19T05:57:25.440Z,85.15
2022-08-19T05:59:58.014Z,85.65
2022-08-19T06:02:26.884Z,78.82
2022-08-19T06:04:53.785Z,78.20
2022-08-19T06:07:20.745Z,82.88
2022-08-19T06:09:56.011Z,75.05
2022-08-19T06:12:36.003Z,75.68
2022-08-19T06:15:16.403Z,74.05
2022-08-19T06:17:45.425Z,77.00
2022-08-19T06:20:14.998Z,79.13
2022-08-19T06:22:43.939Z,75.18
2022-08-19T06:25:11.762Z,78.57
2022-08-19T06:27:58.695Z,67.95
2022-08-19T06:30:28.694Z,65.55
2022-08-19T06:32:55.528Z,65.60
2022-08-19T06:35:22.575Z,65.30
2022-08-19T06:37:49.329Z,61.75
2022-08-19T06:40:18.617Z,62.05
2022-08-19T06:42:54.519Z,61.55
2022-08-19T06:45:24.483Z,63.03
2022-08-19T06:47:56.772Z,54.92
2022-08-19T06:52:52.010Z,55.92
2022-08-19T06:55:20.481Z,56.60
2022-08-19T06:57:47.524Z,47.72
2022-08-19T07:00:15.073Z,55.17
2022-08-19T07:02:49.692Z,52.03
2022-08-19T07:05:20.360Z,55.80
2022-08-19T07:07:47.602Z,52.28
2022-08-19T07:10:15.011Z,49.22
2022-08-19T07:12:42.214Z,49.15
2022-08-19T07:15:10.872Z,53.38
2022-08-19T07:17:40.259Z,51.65
2022-08-19T07:20:10.126Z,47.53
2022-08-19T07:22:40.988Z,51.72
2022-08-19T07:25:09.980Z,46.67
2022-08-19T07:27:38.078Z,46.20
2022-08-19T07:30:08.453Z,54.15
2022-08-19T07:32:39.309Z,41.90
2022-08-19T07:35:07.395Z,49.70
2022-08-19T07:37:36.455Z,48.03
2022-08-19T07:40:05.522Z,46.55
2022-08-19T07:42:34.870Z,49.67
2022-08-19T07:45:01.690Z,43.55
2022-08-19T07:47:58.507Z,41.92
2022-08-19T07:50:16.687Z,37.90
2022-08-19T07:52:45.763Z,36.85
2022-08-19T07:55:41.080Z,40.40
2022-08-19T07:58:05.954Z,37.03
2022-08-19T08:00:33.138Z,36.42
2022-08-19T08:02:59.929Z,33.20
2022-08-19T08:05:47.599Z,36.78
2022-08-19T08:08:33.479Z,34.05
2022-08-19T08:11:01.282Z,33.95
2022-08-19T08:13:30.769Z,30.75
2022-08-19T08:15:58.616Z,32.63
2022-08-19T08:18:27.499Z,29.27
2022-08-19T08:20:55.990Z,26.27
2022-08-19T08:23:23.386Z,31.40
2022-08-19T08:25:50.453Z,30.33
2022-08-19T08:28:18.509Z,24.60
2022-08-19T08:30:48.967Z,18.95
2022-08-19T08:33:30.171Z,19.30
2022-08-19T08:36:04.040Z,20.85
2022-08-19T08:38:38.368Z,18.73
2022-08-19T08:41:34.540Z,16.50
2022-08-19T08:44:05.104Z,19.45
2022-08-19T08:46:41.002Z,23.33
2022-08-19T08:49:34.491Z,19.58
2022-08-19T08:52:10.956Z,18.40
2022-08-19T08:54:48.770Z,20.77
2022-08-19T08:57:38.049Z,19.33
2022-08-19T09:00:16.213Z,17.85
2022-08-19T09:02:44.044Z,16.90
2022-08-19T09:05:16.698Z,21.15
2022-08-19T09:07:54.756Z,16.30
2022-08-19T09:10:59.693Z,20.45
2022-08-19T09:14:03.386Z,18.70
2022-08-19T09:16:34.960Z,16.38
2022-08-19T09:19:06.710Z,17.50
2022-08-19T09:21:35.561Z,15.65
2022-08-19T09:24:03.731Z,16.98
2022-08-19T09:26:47.133Z,14.02
2022-08-19T09:29:15.669Z,14.90
2022-08-19T09:31:44.603Z,13.20
2022-08-19T09:34:20.682Z,14.63
2022-08-19T09:36:47.837Z,11.65
2022-08-19T09:39:16.462Z,12.80
2022-08-19T09:41:47.273Z,12.30
2022-08-19T09:44:15.946Z,12.38
2022-08-19T09:46:43.024Z,11.35
2022-08-19T09:49:12.081Z,11.18
2022-08-19T09:51:40.344Z,13.00
2022-08-19T09:54:11.309Z,12.57
2022-08-19T09:56:38.416Z,16.07
2022-08-19T09:59:05.264Z,11.35
2022-08-19T10:01:33.253Z,9.15
2022-08-19T10:04:06.408Z,11.18
2022-08-19T10:06:46.349Z,8.43
2022-08-19T10:09:15.837Z,9.48
2022-08-19T10:11:54.484Z,8.57
2022-08-19T10:14:24.617Z,8.60
2022-08-19T10:16:52.904Z,6.30
2022-08-19T10:19:25.455Z,5.47
2022-08-19T10:21:54.222Z,6.30
2022-08-19T10:24:21.507Z,5.45
2022-08-19T10:26:57.392Z,6.10
2022-08-19T10:29:32.906Z,6.40
2022-08-19T10:32:09.492Z,7.30
2022-08-19T10:34:48.462Z,9.10
2022-08-19T10:37:18.058Z,10.27
2022-08-19T10:39:51.381Z,6.10
2022-08-19T10:42:19.616Z,7.43
2022-08-19T10:44:47.683Z,6.57
2022-08-19T10:47:17.969Z,7.82
2022-08-19T10:50:12.388Z,10.52
2022-08-19T10:52:49.811Z,8.88
2022-08-19T10:55:39.824Z,9.18
2022-08-19T10:58:12.002Z,5.32
2022-08-19T11:00:38.759Z,6.95
2022-08-19T11:03:05.601Z,8.45
2022-08-19T11:05:40.069Z,8.45
2022-08-19T11:08:22.882Z,4.75
2022-08-19T11:10:57.775Z,7.43
2022-08-19T11:13:25.643Z,7.05
2022-08-19T11:16:07.886Z,6.40
2022-08-19T11:18:47.349Z,5.25
2022-08-19T11:21:22.380Z,6.35
2022-08-19T11:23:54.550Z,8.45
2022-08-19T11:26:23.360Z,8.50
2022-08-19T11:28:53.369Z,5.10
2022-08-19T11:31:22.864Z,6.88
2022-08-19T11:33:54.220Z,10.52
2022-08-19T11:36:24.721Z,6.60
2022-08-19T11:38:51.857Z,5.38
2022-08-19T11:41:24.404Z,5.45
2022-08-19T11:43:54.926Z,5.28
2022-08-19T11:46:23.659Z,7.82
2022-08-19T11:48:51.646Z,7.97
2022-08-19T11:51:22.492Z,5.32
2022-08-19T11:53:51.382Z,4.93
2022-08-19T11:56:19.692Z,9.80
2022-08-19T11:58:46.751Z,6.38
2022-08-19T12:01:17.031Z,6.47
2022-08-19T12:03:45.942Z,6.67
2022-08-19T12:06:16.337Z,6.63
2022-08-19T12:08:44.624Z,7.50
2022-08-19T12:11:15.935Z,5.95
2022-08-19T12:13:45.972Z,5.53
2022-08-19T12:16:18.935Z,8.82
2022-08-19T12:18:48.426Z,8.48
2022-08-19T12:21:22.227Z,9.90
2022-08-19T12:23:55.524Z,8.52
2022-08-19T12:26:23.969Z,6.07
2022-08-19T12:28:51.079Z,7.53
2022-08-19T12:31:18.268Z,7.93
2022-08-19T12:33:47.373Z,6.28
2022-08-19T12:36:16.444Z,11.77
2022-08-19T12:38:45.063Z,7.95
2022-08-19T12:41:15.274Z,6.63
2022-08-19T12:43:43.371Z,6.43
2022-08-19T12:46:11.081Z,7.25
2022-08-19T12:48:40.209Z,7.50
2022-08-19T12:51:10.319Z,6.90
2022-08-19T12:53:39.352Z,6.60
2022-08-19T12:56:11.485Z,5.75
2022-08-19T12:58:40.309Z,5.82
2022-08-19T13:01:09.293Z,4.75
2022-08-19T13:03:40.692Z,5.45
2022-08-19T13:06:08.562Z,5.82
2022-08-19T13:08:35.705Z,3.67
2022-08-19T13:11:19.182Z,5.32
2022-08-19T13:13:48.401Z,4.18
2022-08-19T13:16:15.837Z,6.53
2022-08-19T13:18:45.080Z,3.53
2022-08-19T13:21:15.031Z,4.85
2022-08-19T13:23:42.771Z,4.32
2022-08-19T13:26:11.254Z,4.35
2022-08-19T13:28:57.950Z,3.47
2022-08-19T13:31:47.567Z,4.75
2022-08-19T13:34:15.617Z,5.22
2022-08-19T13:36:42.710Z,4.93
2022-08-19T13:39:10.381Z,8.55
2022-08-19T13:41:38.702Z,4.72
2022-08-19T13:44:07.621Z,5.22
2022-08-19T13:46:34.412Z,3.92
2022-08-19T13:49:01.347Z,2.92
2022-08-19T13:51:28.285Z,2.33
2022-08-19T13:53:56.314Z,2.95
2022-08-19T13:56:26.275Z,5.53
2022-08-19T13:58:54.720Z,3.37
2022-08-19T14:01:27.452Z,6.35
2022-08-19T14:03:54.758Z,3.60
2022-08-19T14:06:23.249Z,4.60
2022-08-19T14:08:52.586Z,3.47
2022-08-19T14:11:19.937Z,3.45
2022-08-19T14:13:46.880Z,5.32
2022-08-19T14:16:15.163Z,3.53
2022-08-19T14:18:43.017Z,2.95
2022-08-19T14:21:16.626Z,3.65
2022-08-19T14:23:43.686Z,2.17
2022-08-19T14:26:14.527Z,5.75
2022-08-19T14:28:42.817Z,5.40
2022-08-19T14:31:11.058Z,4.43
2022-08-19T14:33:38.131Z,4.18
2022-08-19T14:36:06.049Z,4.28
2022-08-19T14:38:32.827Z,4.05
2022-08-19T14:41:18.331Z,4.22
2022-08-19T14:43:47.456Z,6.25
2022-08-19T14:46:17.017Z,5.63
2022-08-19T14:48:44.338Z,6.57
2022-08-19T14:51:11.356Z,5.30
2022-08-19T14:53:39.161Z,5.72
2022-08-19T14:56:15.102Z,6.85
2022-08-19T14:58:43.471Z,3.88
2022-08-19T15:01:11.807Z,7.22
2022-08-19T15:03:40.324Z,4.75
2022-08-19T15:06:08.124Z,6.55
2022-08-19T15:08:41.818Z,8.10
2022-08-19T15:11:11.281Z,7.28
2022-08-19T15:13:38.617Z,4.45
2022-08-19T15:16:17.822Z,4.95
2022-08-19T15:18:46.470Z,4.00
2022-08-19T15:21:17.452Z,4.28
2022-08-19T15:23:58.455Z,3.22
2022-08-19T15:26:28.526Z,2.63
2022-08-19T15:28:55.476Z,4.75
2022-08-19T15:31:28.476Z,2.70
2022-08-19T15:33:58.599Z,2.55
2022-08-19T15:36:26.987Z,3.75
2022-08-19T15:38:53.876Z,2.75
2022-08-19T15:41:23.805Z,4.13
2022-08-19T15:44:04.406Z,2.92
2022-08-19T15:46:34.694Z,4.78
2022-08-19T15:49:02.060Z,3.10
2022-08-19T15:51:30.824Z,2.75
2022-08-19T15:53:59.497Z,2.63
2022-08-19T15:56:27.570Z,3.10
2022-08-19T15:59:13.033Z,4.70
2022-08-19T16:01:58.321Z,3.15
2022-08-19T16:04:44.017Z,2.75
2022-08-19T16:07:12.899Z,2.00
2022-08-19T16:09:39.679Z,3.92
2022-08-19T16:12:06.713Z,3.00
2022-08-19T16:14:35.572Z,3.15
2022-08-19T16:17:05.878Z,2.75
2022-08-19T16:19:33.364Z,2.45
2022-08-19T16:22:00.207Z,2.50
2022-08-19T16:24:28.058Z,3.53
2022-08-19T16:26:58.055Z,5.32
2022-08-19T16:29:34.445Z,3.33
2022-08-19T16:32:07.756Z,2.00
2022-08-19T16:34:34.760Z,3.70
2022-08-19T16:37:04.803Z,2.88
2022-08-19T16:39:31.746Z,2.90
2022-08-19T16:41:59.027Z,3.50
2022-08-19T16:44:27.444Z,5.53
2022-08-19T16:47:00.214Z,2.50
2022-08-19T16:49:55.280Z,4.15
2022-08-19T16:52:16.198Z,3.35
2022-08-19T16:54:43.981Z,3.20
2022-08-19T16:57:12.880Z,3.72
2022-08-19T16:59:44.118Z,4.70
2022-08-19T17:02:22.086Z,4.80
2022-08-19T17:04:58.537Z,5.28
2022-08-19T17:07:33.158Z,4.65
2022-08-19T17:10:02.050Z,5.70
2022-08-19T17:12:30.362Z,4.50
2022-08-19T17:15:01.391Z,7.07
2022-08-19T17:17:29.649Z,7.68
2022-08-19T17:20:00.724Z,8.75
2022-08-19T17:22:28.523Z,6.20
2022-08-19T17:24:56.465Z,6.55
2022-08-19T17:27:25.542Z,5.93
2022-08-19T17:29:53.041Z,5.35
2022-08-19T17:32:24.862Z,6.68
2022-08-19T17:34:54.200Z,7.75
2022-08-19T17:37:21.630Z,4.65
2022-08-19T17:39:48.518Z,6.70
2022-08-19T17:42:15.325Z,9.05
2022-08-19T17:44:42.292Z,7.03
2022-08-19T17:47:12.764Z,6.93
2022-08-19T17:49:39.621Z,7.22
2022-08-19T17:52:09.946Z,8.02
2022-08-19T17:54:37.288Z,8.27
2022-08-19T17:57:04.240Z,8.23
2022-08-19T17:59:32.081Z,7.38
2022-08-19T18:01:59.666Z,6.82
2022-08-19T18:04:29.432Z,8.35
2022-08-19T18:06:56.747Z,6.55
2022-08-19T18:09:42.299Z,9.93
2022-08-19T18:12:13.284Z,7.80
2022-08-19T18:14:41.393Z,9.60
2022-08-19T18:17:17.185Z,12.00
2022-08-19T18:19:45.555Z,8.63
2022-08-19T18:22:36.885Z,7.65
2022-08-19T18:25:22.475Z,7.78
2022-08-19T18:27:49.533Z,7.75
2022-08-19T18:30:16.512Z,8.00
2022-08-19T18:32:46.580Z,7.35
2022-08-19T18:35:16.102Z,7.93
2022-08-19T18:37:44.599Z,9.77
2022-08-19T18:40:36.090Z,9.93
2022-08-19T18:46:07.374Z,9.52
2022-08-19T18:48:53.272Z,5.95
2022-08-19T18:51:22.483Z,6.53
2022-08-19T18:53:57.317Z,5.93
2022-08-19T18:56:28.652Z,7.15
2022-08-19T19:01:36.598Z,9.75
2022-08-19T19:04:06.307Z,8.40
2022-08-19T19:06:38.119Z,7.22
2022-08-19T19:09:07.591Z,9.60
2022-08-19T19:11:37.649Z,9.18
2022-08-19T19:14:23.025Z,8.82
2022-08-19T19:16:59.468Z,8.68
2022-08-19T19:19:26.463Z,7.07
2022-08-19T19:21:55.973Z,7.53
2022-08-19T19:24:29.671Z,8.52
2022-08-19T19:27:06.288Z,8.13
2022-08-19T19:29:36.477Z,11.32
2022-08-19T19:32:08.933Z,9.63
2022-08-19T19:34:38.832Z,9.43
2022-08-19T19:37:05.867Z,8.52
2022-08-19T19:39:46.635Z,11.13
2022-08-19T19:42:20.234Z,10.88
2022-08-19T19:44:50.627Z,9.80
2022-08-19T19:47:19.401Z,14.65
2022-08-19T19:50:13.171Z,11.32
2022-08-19T19:52:40.712Z,7.68
2022-08-19T19:55:18.021Z,12.10
2022-08-19T19:57:48.997Z,9.88
2022-08-19T20:00:19.827Z,10.30
2022-08-19T20:02:50.977Z,9.90
2022-08-19T20:05:21.752Z,13.02
2022-08-19T20:08:11.989Z,15.05
2022-08-19T20:10:40.400Z,8.23
2022-08-19T20:13:08.088Z,11.82
2022-08-19T20:15:39.087Z,10.30
2022-08-19T20:18:11.311Z,10.10
2022-08-19T20:20:40.793Z,11.02
2022-08-19T20:23:07.667Z,8.50
2022-08-19T20:25:37.990Z,6.72
2022-08-19T20:28:08.292Z,10.60
2022-08-19T20:30:35.814Z,10.07
2022-08-19T20:35:37.805Z,9.30
2022-08-19T20:38:06.508Z,8.32
2022-08-19T20:40:35.254Z,7.13
2022-08-19T20:43:07.649Z,10.25
2022-08-19T20:45:37.229Z,10.18
2022-08-19T20:48:06.397Z,10.50
2022-08-19T20:50:35.238Z,13.63
2022-08-19T20:53:09.514Z,6.45
2022-08-19T20:55:36.794Z,7.43
2022-08-19T20:58:03.860Z,8.50
2022-08-19T21:00:30.922Z,7.00
2022-08-19T21:03:00.398Z,6.53
2022-08-19T21:05:30.726Z,10.05
2022-08-19T21:07:58.101Z,11.37
2022-08-19T21:10:26.219Z,9.10
2022-08-19T21:12:53.566Z,9.13
2022-08-19T21:15:20.443Z,9.52
2022-08-19T21:17:50.041Z,6.90
2022-08-19T21:20:16.988Z,8.68
2022-08-19T21:22:44.029Z,8.32
2022-08-19T21:25:11.692Z,8.75
2022-08-19T21:27:40.560Z,8.35
2022-08-19T21:30:09.014Z,5.97
2022-08-19T21:32:36.291Z,6.13
2022-08-19T21:35:03.736Z,7.47
2022-08-19T21:37:33.576Z,5.38
2022-08-19T21:40:00.577Z,6.18
2022-08-19T21:42:27.356Z,5.45
2022-08-19T21:44:54.257Z,7.00
2022-08-19T21:47:21.020Z,6.82
2022-08-19T21:49:47.769Z,5.88
2022-08-19T21:52:20.330Z,6.45
2022-08-19T21:54:47.161Z,7.25
2022-08-19T21:57:13.916Z,8.07
2022-08-19T21:59:44.038Z,4.50
2022-08-19T22:02:20.257Z,7.00
2022-08-19T22:04:50.742Z,6.22
2022-08-19T22:07:18.474Z,7.10
2022-08-19T22:09:49.278Z,7.82
2022-08-19T22:12:27.566Z,7.03
2022-08-19T22:14:55.276Z,5.88
2022-08-19T22:17:22.963Z,9.07
2022-08-19T22:19:50.907Z,6.43
2022-08-19T22:22:33.323Z,7.20
2022-08-19T22:25:31.879Z,5.95
2022-08-19T22:28:04.269Z,8.63
2022-08-19T22:30:33.796Z,8.27
2022-08-19T22:33:06.306Z,5.88
2022-08-19T22:35:35.795Z,7.10
2022-08-19T22:38:06.347Z,6.43
2022-08-19T22:40:36.635Z,4.65
2022-08-19T22:43:07.514Z,6.63
2022-08-19T22:45:36.374Z,3.75
2022-08-19T22:48:07.881Z,5.25
2022-08-19T22:50:39.078Z,6.60
2022-08-19T22:53:07.446Z,6.03
2022-08-19T22:55:36.001Z,5.88
2022-08-19T22:58:03.561Z,5.65
2022-08-19T23:00:32.388Z,4.05
2022-08-19T23:02:59.276Z,5.22
2022-08-19T23:05:28.301Z,7.03
2022-08-19T23:07:58.532Z,5.55
2022-08-19T23:10:28.918Z,5.80
2022-08-19T23:12:57.835Z,6.55
2022-08-19T23:15:28.065Z,6.45
2022-08-19T23:17:59.090Z,7.82
2022-08-19T23:20:28.227Z,5.57
2022-08-19T23:22:56.280Z,3.85
2022-08-19T23:25:26.887Z,5.70
2022-08-19T23:28:14.545Z,6.00
2022-08-19T23:30:45.579Z,5.00
2022-08-19T23:33:24.118Z,6.88
2022-08-19T23:36:04.763Z,7.30
2022-08-19T23:38:34.875Z,5.63
2022-08-19T23:41:04.227Z,5.53
2022-08-19T23:43:31.652Z,4.68
2022-08-19T23:46:03.214Z,5.28
2022-08-19T23:48:37.596Z,5.93
2022-08-19T23:51:10.034Z,5.45
2022-08-19T23:53:39.298Z,7.47
2022-08-19T23:56:09.779Z,9.82
2022-08-19T23:58:37.795Z,9.00
